LRBS/BBU METAR and TAF weather

Enter ICAO airport designator
Station Type Date Time Source
LRBS METAR 2019/05/26 23:00 UTC NOAA

LRBS 262300Z 00000KT CAVOK 16/14 Q1016 NOSIG


Station Type Date Time Source
LRBS Decoded METAR 2019/05/26 23:00 UTC NOAA

Bucuresti / Imh, Romania (LRBS) 44-30N 026-08E 91M
May 26, 2019 - 07:00 PM EDT / 2019.05.26 2300 UTC
Wind: Calm:0
Visibility: greater than 7 mile(s):0
Temperature: 60 F (16 C)
Dew Point: 57 F (14 C)
Relative Humidity: 87%
Pressure (altimeter): 30.00 in. Hg (1016 hPa)
ob: LRBS 262300Z 00000KT CAVOK 16/14 Q1016 NOSIG
cycle: 23

Station Type Date Time Source
LRBS TAF 2019/05/26 18:41 UTC NOAA

TAF LRBS 261700Z 2618/2718 VRB04KT CAVOK PROB30
TEMPO 2702/2705 5000 BR
BECMG 2708/2710 09010KT
BECMG 2714/2716 15012KT

Example: see airport list